Main page
METAR-TAF:

METAR-TAF

Airports :

Santo-Pekoa International Airport

Luganville, Espiritu Santo, Vanuatu

latitude: 15-31S, longitude: 167-13E, elevation: 41 m

Current weather observation

The report was made 49 minutes ago, at 23:00 UTC
Wind 6 kt from the East/Southeast
Temperature 29°C
Humidity 74%
Pressure 1015 hPa
Visibility 10 km or more
Scattered clouds at a height of 2000 ft

METAR: NVSS 012300Z 12006KT 9999 SCT020 29/24 Q1015

Time: 10:49 (23:49 UTC)

Forecast

The report was made 1 hour and 29 minutes ago, at 22:20 UTC
Forecast valid from 02 at 00 UTC to 02 at 24 UTC
Wind 6 kt from the East/Southeast
Visibility 10 km or more
Scattered clouds at a height of 2000 ft

TAF: NVSS 012220Z 0200/0224 11006KT 9999 SCT020

Weather observations and forecasts of more than 4000 airports (METAR and TAF reports).

The available stations are represented by yellow and red dots on the map.

Hover mouse over dot to see the name of the station.

Then click to see weather observations and forecasts.

To change the map : click on the green buttons with a black cross to zoom in, on the green button with a dash to zoom out, or on the green arrows for adjacent maps.


METAR-TAF: